Time;durP1;ratioP1;P1;durP2;ratioP2;P2;SDS_P1;SDS_P2;PMS_P1;PMS_P2;Temp;Humidity;BMP_temperature;BMP_pressure;BME280_temperature;BME280_humidity;BME280_pressure;Samples;Min_cycle;Max_cycle;Signal;HPM_P1;HPM_P2
2021/04/21 00:00:23;;;;;;;22.93;14.85;;;;;;;6.90;81.96;97446.59;1705928;84;21122;-74
2021/04/21 00:02:54;;;;;;;20.97;14.00;;;;;;;6.88;81.13;97445.73;1708549;83;21493;-74
2021/04/21 00:05:24;;;;;;;22.00;13.70;;;;;;;6.89;80.72;97442.19;1706804;83;21119;-74
2021/04/21 00:07:54;;;;;;;19.77;12.98;;;;;;;6.89;81.26;97448.78;1703913;84;21297;-74
2021/04/21 00:10:24;;;;;;;21.73;13.83;;;;;;;6.91;80.34;97448.31;1678474;84;21138;-74
2021/04/21 00:12:53;;;;;;;20.68;14.38;;;;;;;6.92;80.32;97455.30;1675668;86;21537;-74
2021/04/21 00:15:24;;;;;;;20.85;14.00;;;;;;;6.91;80.39;97450.06;1675747;86;21167;-74
2021/04/21 00:17:58;;;;;;;20.43;13.68;;;;;;;6.90;80.31;97449.22;1675245;85;21131;-74
2021/04/21 00:20:26;;;;;;;;;;;;;;;6.89;80.84;97458.00;1703423;84;21123;-74
2021/04/21 00:22:57;;;;;;;18.35;13.10;;;;;;;6.86;81.60;97451.03;1703119;84;20146;-75
2021/04/21 00:25:29;;;;;;;19.48;12.68;;;;;;;6.85;80.88;97444.05;1703363;84;21155;-74
2021/04/21 00:27:57;;;;;;;22.10;13.15;;;;;;;6.88;80.51;97449.69;1703352;84;21134;-74
2021/04/21 00:30:28;;;;;;;18.62;12.10;;;;;;;6.87;80.97;97449.28;1677412;84;21130;-74
2021/04/21 00:32:58;;;;;;;19.27;13.22;;;;;;;6.88;80.99;97448.37;1685901;84;21309;-74
2021/04/21 00:35:34;;;;;;;19.77;12.23;;;;;;;6.95;80.52;97451.73;1685909;85;21180;-74
2021/04/21 00:38:14;;;;;;;18.90;11.50;;;;;;;7.04;80.53;97442.73;1760385;79;22952;-74
2021/04/21 00:40:50;;;;;;;17.85;12.15;;;;;;;7.00;80.83;97450.73;1724807;82;21150;-74
2021/04/21 00:44:04;;;;;;;17.32;11.90;;;;;;;7.04;81.02;97447.56;1724622;83;21150;-74
2021/04/21 00:46:39;;;;;;;16.45;12.00;;;;;;;7.09;81.14;97446.12;1725014;82;21178;-74
2021/04/21 00:49:28;;;;;;;17.65;11.68;;;;;;;7.16;81.25;97454.30;1724816;83;21099;-74
2021/04/21 00:52:03;;;;;;;17.15;11.20;;;;;;;7.19;81.25;97446.30;1724546;83;21135;-74
2021/04/21 00:55:05;;;;;;;17.32;11.75;;;;;;;7.24;81.34;97447.52;1724743;83;21158;-74
2021/04/21 00:57:54;;;;;;;17.60;11.38;;;;;;;7.30;81.62;97453.11;1696847;83;21150;-74
2021/04/21 01:00:27;;;;;;;21.95;13.25;;;;;;;7.36;82.26;97453.78;1748913;82;21154;-74
2021/04/21 01:03:16;;;;;;;20.52;12.75;;;;;;;7.37;81.93;97452.91;1745687;82;21143;-74
2021/04/21 01:05:49;;;;;;;18.55;13.20;;;;;;;7.38;82.19;97448.48;1744148;82;21281;-74
2021/04/21 01:08:28;;;;;;;20.20;13.08;;;;;;;7.36;81.82;97444.56;1732573;81;21118;-74
2021/04/21 01:11:21;;;;;;;18.25;13.08;;;;;;;7.34;81.50;97446.38;1739713;82;21079;-74
2021/04/21 01:13:54;;;;;;;17.90;12.95;;;;;;;7.35;81.30;97452.53;1724571;83;21142;-74
2021/04/21 01:16:27;;;;;;;20.07;13.60;;;;;;;7.26;80.78;97449.66;1724995;83;21150;-74
2021/04/21 01:19:00;;;;;;;17.48;12.43;;;;;;;7.18;81.15;97451.64;1725509;82;21143;-74
2021/04/21 01:21:45;;;;;;;19.50;13.35;;;;;;;7.17;81.03;97452.52;1754582;81;21138;-74
2021/04/21 01:24:18;;;;;;;19.85;13.18;;;;;;;7.13;81.05;97451.30;1753388;82;21134;-74
2021/04/21 01:27:05;;;;;;;22.07;14.23;;;;;;;7.10;81.49;97446.09;1754633;82;21277;-74
2021/04/21 01:29:37;;;;;;;18.73;12.80;;;;;;;7.10;81.34;97445.23;1746213;82;21257;-74
2021/04/21 01:32:10;;;;;;;22.27;12.10;;;;;;;7.09;81.02;97449.63;1724673;83;21139;-74
2021/04/21 01:34:41;;;;;;;19.90;13.62;;;;;;;7.07;81.67;97448.81;1724613;83;21533;-74
2021/04/21 01:37:12;;;;;;;18.60;13.00;;;;;;;7.02;81.66;97459.04;1725004;83;21150;-74
2021/04/21 01:40:11;;;;;;;20.68;13.40;;;;;;;6.96;81.56;97458.72;1735185;82;21106;-74
2021/04/21 01:42:43;;;;;;;20.17;12.98;;;;;;;6.93;81.71;97456.19;1755408;82;21139;-74
2021/04/21 01:45:18;;;;;;;22.22;14.47;;;;;;;6.88;80.99;97456.27;1755382;82;21118;-74
2021/04/21 01:47:49;;;;;;;23.95;15.32;;;;;;;6.87;81.28;97454.55;1755148;82;21679;-74
2021/04/21 01:50:17;;;;;;;23.20;14.07;;;;;;;6.83;81.29;97459.47;1738022;82;21119;-74
2021/04/21 01:53:08;;;;;;;20.77;13.00;;;;;;;6.77;81.82;97454.35;1725052;83;21135;-74
2021/04/21 01:55:55;;;;;;;22.10;13.62;;;;;;;6.78;81.45;97453.00;1781150;79;22963;-75
2021/04/21 01:58:54;;;;;;;21.05;14.20;;;;;;;6.73;81.95;97454.41;1754676;82;21292;-75
2021/04/21 02:01:48;;;;;;;24.32;15.45;;;;;;;6.76;81.25;97454.78;1748384;82;21114;-74
2021/04/21 02:04:53;;;;;;;23.57;14.23;;;;;;;6.72;81.19;97456.63;1724861;83;21133;-73
2021/04/21 02:08:13;;;;;;;22.15;14.25;;;;;;;6.68;80.88;97459.39;1724910;83;21168;-73
2021/04/21 02:11:18;;;;;;;22.65;13.90;;;;;;;6.65;80.89;97462.95;1736771;82;21110;-73
2021/04/21 02:14:43;;;;;;;23.95;14.05;;;;;;;6.62;81.38;97463.02;1726599;81;21169;-74
2021/04/21 02:17:36;;;;;;;22.00;13.85;;;;;;;6.59;82.00;97464.38;1732313;82;21117;-74
2021/04/21 02:20:45;;;;;;;20.92;13.30;;;;;;;6.55;81.43;97462.71;1731570;83;21145;-74
2021/04/21 02:23:26;;;;;;;20.80;13.45;;;;;;;6.50;81.35;97464.14;1732182;83;21162;-74
2021/04/21 02:26:18;;;;;;;21.25;13.30;;;;;;;6.51;81.70;97459.29;1732372;83;21527;-74
2021/04/21 02:29:02;;;;;;;19.90;12.30;;;;;;;6.52;81.64;97463.65;1732245;82;21138;-74
2021/04/21 02:31:44;;;;;;;16.27;10.88;;;;;;;6.53;82.03;97461.45;1703223;84;21464;-74
2021/04/21 02:34:43;;;;;;;19.25;11.85;;;;;;;6.56;81.66;97464.00;1728758;81;21153;-74
2021/04/21 02:37:24;;;;;;;17.70;11.30;;;;;;;6.59;81.66;97465.70;1732078;83;21145;-74
2021/04/21 02:40:13;;;;;;;18.90;11.03;;;;;;;6.65;81.64;97460.32;1731177;83;21129;-74
2021/04/21 02:42:51;;;;;;;16.73;10.30;;;;;;;6.68;81.34;97463.33;1732283;83;21114;-75
2021/04/21 02:45:39;;;;;;;15.93;10.53;;;;;;;6.76;81.44;97463.16;1710321;83;21137;-74
2021/04/21 02:48:21;;;;;;;18.15;11.83;;;;;;;6.77;81.24;97461.78;1702382;84;21161;-74
2021/04/21 02:51:13;;;;;;;17.12;10.98;;;;;;;6.79;81.17;97464.39;1724003;83;21170;-74
2021/04/21 02:54:13;;;;;;;19.00;12.30;;;;;;;6.86;81.01;97468.16;1732293;83;21166;-74
2021/04/21 02:56:49;;;;;;;18.15;10.95;;;;;;;6.87;81.21;97474.30;1730600;83;21106;-74
2021/04/21 02:59:44;;;;;;;18.60;10.90;;;;;;;6.88;80.78;97468.13;1729976;83;21129;-75
2021/04/21 03:02:22;;;;;;;15.80;11.10;;;;;;;6.85;80.38;97466.43;1703189;83;21150;-75
2021/04/21 03:05:05;;;;;;;17.42;11.63;;;;;;;6.86;80.75;97479.16;1702835;84;21180;-74
2021/04/21 03:07:44;;;;;;;18.23;11.78;;;;;;;6.85;80.91;97479.60;1702538;84;21168;-74
2021/04/21 03:10:15;;;;;;;17.00;12.00;;;;;;;6.86;80.13;97473.42;1715706;83;21082;-74
2021/04/21 03:12:54;;;;;;;18.92;11.85;;;;;;;6.84;79.89;97479.19;1731529;83;21145;-74
2021/04/21 03:15:25;;;;;;;13.68;10.00;;;;;;;6.83;79.98;97478.78;1732945;82;21157;-74
2021/04/21 03:17:57;;;;;;;15.78;10.48;;;;;;;6.84;79.95;97480.95;1732894;83;21496;-73
2021/04/21 03:20:26;;;;;;;15.03;9.88;;;;;;;6.82;80.35;97484.92;1711193;83;21111;-74
2021/04/21 03:22:57;;;;;;;16.40;11.35;;;;;;;6.82;80.51;97491.98;1702624;84;21292;-74
2021/04/21 03:25:31;;;;;;;15.88;11.00;;;;;;;6.83;80.58;97487.13;1702576;84;21150;-74
2021/04/21 03:28:03;;;;;;;15.68;11.15;;;;;;;6.83;80.51;97491.95;1703048;83;21500;-74
2021/04/21 03:30:34;;;;;;;17.73;11.88;;;;;;;6.83;80.34;97495.91;1731082;83;21249;-74
2021/04/21 03:33:24;;;;;;;20.05;12.10;;;;;;;6.80;80.23;97493.77;1700262;83;21125;-74
2021/04/21 03:35:53;;;;;;;18.15;12.05;;;;;;;6.78;80.86;97501.73;1709864;84;21158;-74
2021/04/21 03:38:21;;;;;;;20.10;11.95;;;;;;;6.77;80.41;97493.38;1707590;83;21127;-74
2021/04/21 03:40:49;;;;;;;18.55;11.15;;;;;;;6.77;80.70;97504.39;1692742;85;21146;-74
2021/04/21 03:43:29;;;;;;;17.75;12.23;;;;;;;6.75;80.99;97501.78;1719666;83;21131;-74
2021/04/21 03:45:59;;;;;;;20.97;12.15;;;;;;;6.77;80.51;97510.97;1721619;83;21100;-74
2021/04/21 03:48:28;;;;;;;17.17;11.83;;;;;;;6.74;80.84;97507.95;1716271;83;21122;-74
2021/04/21 03:50:56;;;;;;;18.48;11.33;;;;;;;6.73;80.68;97503.59;1665223;85;21505;-74
2021/04/21 03:53:28;;;;;;;18.55;12.37;;;;;;;6.73;80.96;97500.50;1692724;85;21163;-74
2021/04/21 03:55:57;;;;;;;21.00;12.30;;;;;;;6.75;80.87;97507.05;1692677;85;21153;-74
2021/04/21 03:58:29;;;;;;;16.65;11.38;;;;;;;6.78;80.54;97515.33;1697159;83;21103;-74
2021/04/21 04:01:01;;;;;;;19.32;12.10;;;;;;;6.77;80.27;97514.92;1721515;83;21127;-74
2021/04/21 04:03:31;;;;;;;19.40;12.75;;;;;;;6.75;80.53;97504.42;1701206;83;21155;-74
2021/04/21 04:06:14;;;;;;;18.60;12.55;;;;;;;6.76;81.26;97511.41;1692752;85;21112;-74
2021/04/21 04:08:52;;;;;;;20.45;11.45;;;;;;;6.76;81.13;97523.27;1700808;83;21135;-75
2021/04/21 04:11:25;;;;;;;16.75;11.25;;;;;;;6.78;80.83;97520.16;1700057;83;21104;-74
2021/04/21 04:14:01;;;;;;;19.15;11.65;;;;;;;6.78;80.44;97524.11;1692912;83;21540;-74
2021/04/21 04:16:31;;;;;;;16.73;11.15;;;;;;;6.77;80.63;97522.83;1692619;84;21163;-74
2021/04/21 04:19:01;;;;;;;17.77;10.25;;;;;;;6.76;80.33;97529.00;1694657;83;21115;-74
2021/04/21 04:21:33;;;;;;;17.75;10.60;;;;;;;6.72;80.49;97528.17;1692763;85;21127;-74
2021/04/21 04:24:06;;;;;;;17.12;11.80;;;;;;;6.76;80.55;97529.00;1692598;85;21111;-74
2021/04/21 04:26:38;;;;;;;17.15;11.48;;;;;;;6.81;80.69;97530.61;1692966;85;21512;-74
2021/04/21 04:29:05;;;;;;;16.37;11.15;;;;;;;6.84;80.70;97523.97;1704053;83;21524;-74
2021/04/21 04:31:36;;;;;;;15.58;10.88;;;;;;;6.86;80.90;97527.42;1721653;83;21127;-74
2021/04/21 04:34:06;;;;;;;17.05;10.65;;;;;;;6.93;80.66;97528.16;1721549;83;21142;-74
2021/04/21 04:36:38;;;;;;;16.30;10.20;;;;;;;7.04;80.79;97534.95;1721410;83;21158;-74
2021/04/21 04:39:08;;;;;;;14.23;9.78;;;;;;;7.08;80.82;97541.89;1710392;83;21147;-74
2021/04/21 04:41:39;;;;;;;13.25;9.45;;;;;;;7.15;80.64;97539.55;1711121;83;21131;-74
2021/04/21 04:44:07;;;;;;;15.23;9.93;;;;;;;7.24;80.71;97541.09;1721417;83;21127;-74
2021/04/21 04:46:42;;;;;;;13.90;9.93;;;;;;;7.30;80.66;97538.77;1721610;83;21163;-74
2021/04/21 04:49:14;;;;;;;15.88;10.50;;;;;;;7.35;80.58;97540.38;1709872;83;21175;-74
2021/04/21 04:51:46;;;;;;;14.53;10.43;;;;;;;7.44;80.93;97545.02;1664946;85;21135;-74
2021/04/21 04:54:15;;;;;;;18.42;10.75;;;;;;;7.42;80.65;97541.56;1692766;85;21171;-74
2021/04/21 04:56:46;;;;;;;13.38;9.63;;;;;;;7.42;80.38;97542.89;1692758;85;21180;-74
2021/04/21 04:59:14;;;;;;;18.15;10.05;;;;;;;7.42;80.34;97541.56;1704609;83;21467;-74
2021/04/21 05:01:58;;;;;;;14.65;10.43;;;;;;;7.44;80.22;97547.22;1721662;83;21135;-74
2021/04/21 05:04:39;;;;;;;16.62;11.22;;;;;;;7.46;79.99;97553.75;1721641;83;21100;-73
2021/04/21 05:07:08;;;;;;;14.87;11.05;;;;;;;7.48;79.82;97554.13;1710821;83;21124;-73
2021/04/21 05:09:42;;;;;;;16.75;11.45;;;;;;;7.56;79.92;97549.98;1705827;83;21111;-73
2021/04/21 05:12:15;;;;;;;20.10;13.00;;;;;;;7.61;79.50;97549.88;1692758;83;21126;-73
2021/04/21 05:14:47;;;;;;;21.70;12.40;;;;;;;7.67;79.34;97556.31;1692722;85;21135;-74
2021/04/21 05:17:42;;;;;;;19.95;11.88;;;;;;;7.72;79.19;97552.26;1694911;83;21521;-74
2021/04/21 05:20:49;;;;;;;18.90;11.38;;;;;;;7.73;78.60;97551.34;1651174;86;21137;-74
2021/04/21 05:23:36;;;;;;;16.15;10.80;;;;;;;7.73;78.44;97557.94;1684779;84;21477;-74
2021/04/21 05:26:36;;;;;;;19.50;12.03;;;;;;;7.76;78.16;97557.84;1658024;86;21100;-74
2021/04/21 05:29:44;;;;;;;16.70;11.43;;;;;;;7.76;77.97;97561.36;1671805;84;21153;-74
2021/04/21 05:32:55;;;;;;;16.42;10.68;;;;;;;7.77;77.92;97570.16;1652868;86;21225;-74
2021/04/21 05:36:09;;;;;;;17.95;12.18;;;;;;;7.82;78.21;97566.95;1671222;86;21177;-74
2021/04/21 05:39:15;;;;;;;19.92;12.43;;;;;;;7.88;78.20;97570.73;1673692;84;21203;-74
2021/04/21 05:42:11;;;;;;;19.52;13.03;;;;;;;7.96;77.94;97574.94;1699226;84;21158;-74
2021/04/21 05:45:05;;;;;;;20.60;13.05;;;;;;;8.01;77.84;97567.33;1699280;84;21484;-75
2021/04/21 05:47:41;;;;;;;15.70;9.63;;;;;;;8.14;77.76;97570.50;1685150;84;21142;-74
2021/04/21 05:50:44;;;;;;;15.58;9.95;;;;;;;8.26;77.37;97574.59;1678951;84;21146;-74
2021/04/21 05:54:01;;;;;;;15.03;10.48;;;;;;;8.30;76.96;97577.56;1669658;86;21170;-74
2021/04/21 05:57:13;;;;;;;15.58;10.23;;;;;;;8.40;77.03;97576.87;1670345;86;21153;-74
2021/04/21 06:00:06;;;;;;;13.83;10.40;;;;;;;8.54;76.52;97577.83;1685839;84;21129;-74
2021/04/21 06:02:36;;;;;;;16.87;10.53;;;;;;;8.68;76.37;97578.75;1682454;84;21201;-75
2021/04/21 06:05:14;;;;;;;17.48;11.05;;;;;;;8.77;76.07;97581.61;1669595;84;21150;-74
2021/04/21 06:07:43;;;;;;;16.12;10.93;;;;;;;8.90;76.10;97587.83;1698848;84;21142;-74
2021/04/21 06:10:25;;;;;;;15.32;9.65;;;;;;;8.98;75.13;97587.16;1679254;84;21149;-74
2021/04/21 06:12:58;;;;;;;13.50;8.58;;;;;;;9.04;74.85;97584.77;1671165;86;21170;-73
2021/04/21 06:15:35;;;;;;;12.98;9.40;;;;;;;9.11;74.25;97589.83;1671007;86;21536;-74
2021/04/21 06:18:06;;;;;;;14.00;8.10;;;;;;;9.20;73.72;97582.09;1671094;83;21157;-73
2021/04/21 06:20:41;;;;;;;12.47;9.13;;;;;;;9.26;72.55;97584.14;1671670;84;21102;-74
2021/04/21 06:23:18;;;;;;;12.23;8.70;;;;;;;9.34;72.97;97590.06;1671056;86;21157;-73
2021/04/21 06:25:59;;;;;;;14.25;8.70;;;;;;;9.43;72.77;97590.22;1671115;86;21166;-74
2021/04/21 06:28:27;;;;;;;14.45;9.38;;;;;;;9.51;72.70;97589.05;1684079;84;21149;-74
2021/04/21 06:31:13;;;;;;;14.45;9.18;;;;;;;9.61;72.81;97593.61;1683853;84;21145;-75
2021/04/21 06:33:45;;;;;;;12.25;8.83;;;;;;;9.73;72.75;97591.47;1686598;84;21161;-74
2021/04/21 06:36:14;;;;;;;11.50;7.97;;;;;;;9.82;72.84;97592.49;1685283;84;21142;-74
2021/04/21 06:38:42;;;;;;;14.28;8.88;;;;;;;9.88;72.56;97587.44;1683973;84;21125;-73
2021/04/21 06:41:11;;;;;;;14.70;8.98;;;;;;;9.99;72.37;97590.61;1685296;84;21106;-73
2021/04/21 06:43:39;;;;;;;11.25;8.13;;;;;;;10.09;72.28;97592.47;1686525;84;21177;-74
2021/04/21 06:46:10;;;;;;;12.33;8.45;;;;;;;10.20;71.99;97594.76;1687917;84;21484;-73
2021/04/21 06:48:39;;;;;;;12.80;8.18;;;;;;;10.22;70.00;97592.06;1644140;86;21174;-73
2021/04/21 06:51:15;;;;;;;10.68;7.58;;;;;;;10.12;68.12;97592.37;1671285;84;21500;-73
2021/04/21 06:53:45;;;;;;;11.35;7.60;;;;;;;10.07;69.48;97594.77;1671319;84;21156;-74
2021/04/21 06:56:16;;;;;;;9.80;7.50;;;;;;;10.08;70.04;97585.45;1683141;84;21129;-74
2021/04/21 06:58:43;;;;;;;11.45;8.20;;;;;;;10.17;69.95;97590.88;1685990;84;21125;-74
2021/04/21 07:01:16;;;;;;;13.60;9.75;;;;;;;10.25;69.72;97589.28;1656797;86;21184;-75
2021/04/21 07:03:45;;;;;;;17.42;10.70;;;;;;;10.25;69.06;97594.14;1671060;86;21139;-75
2021/04/21 07:06:14;;;;;;;10.53;8.10;;;;;;;10.31;69.03;97590.42;1676369;85;21112;-75
2021/04/21 07:08:41;;;;;;;11.18;7.30;;;;;;;10.39;68.91;97596.30;1655116;86;21135;-75
2021/04/21 07:11:11;;;;;;;9.40;6.28;;;;;;;10.47;68.37;97596.53;1675638;85;21109;-75
2021/04/21 07:13:50;;;;;;;7.40;5.25;;;;;;;10.50;65.43;97601.25;1657435;86;21497;-75
2021/04/21 07:16:28;;;;;;;6.03;4.60;;;;;;;10.55;67.22;97604.59;1671383;85;21530;-75
2021/04/21 07:19:00;;;;;;;9.68;5.60;;;;;;;10.62;66.78;97603.05;1694204;84;21618;-75
2021/04/21 07:21:29;;;;;;;7.78;5.40;;;;;;;10.68;66.57;97597.55;1703545;84;21149;-76
2021/04/21 07:24:01;;;;;;;10.78;7.30;;;;;;;10.72;66.45;97600.94;1694765;84;21104;-75
2021/04/21 07:26:36;;;;;;;12.00;7.87;;;;;;;10.68;62.78;97597.06;1688034;84;21235;-76
2021/04/21 07:29:09;;;;;;;10.95;7.65;;;;;;;10.63;63.10;97606.13;1691504;84;21148;-75
2021/04/21 07:31:39;;;;;;;12.50;7.90;;;;;;;10.62;63.78;97608.34;1703552;84;21497;-77
2021/04/21 07:34:14;;;;;;;12.07;7.95;;;;;;;10.64;65.09;97602.10;1697722;82;21089;-77
2021/04/21 07:36:48;;;;;;;10.70;7.58;;;;;;;10.67;65.13;97597.99;1703842;84;21134;-78
2021/04/21 07:39:16;;;;;;;;;;;;;;;10.68;64.15;97595.73;1705981;84;21227;-78
2021/04/21 07:41:47;;;;;;;12.58;7.28;;;;;;;10.68;64.23;97599.72;1701677;84;20132;-78
2021/04/21 07:44:50;;;;;;;9.80;7.45;;;;;;;10.71;64.12;97607.17;1704712;84;21463;-79
2021/04/21 07:47:13;;;;;;;6.55;4.42;;;;;;;10.78;64.17;97600.70;1699526;84;21142;-79
2021/04/21 07:49:59;;;;;;;5.67;4.62;;;;;;;10.86;61.60;97600.42;1700939;84;21270;-79
2021/04/21 07:52:31;;;;;;;5.85;4.25;;;;;;;10.89;59.21;97597.67;1699746;84;21177;-79
2021/04/21 07:55:22;;;;;;;6.37;4.25;;;;;;;10.90;61.04;97601.59;1702376;83;21125;-79
2021/04/21 07:58:05;;;;;;;5.85;4.30;;;;;;;10.98;61.49;97601.75;1698335;84;21430;-79
2021/04/21 08:00:35;;;;;;;6.97;4.17;;;;;;;11.10;59.61;97601.30;1698214;84;21112;-79
2021/04/21 08:03:04;;;;;;;7.28;5.53;;;;;;;11.24;57.65;97602.09;1695266;84;21271;-78
2021/04/21 08:05:31;;;;;;;7.97;6.55;;;;;;;11.43;59.87;97606.69;1698857;84;21504;-79
2021/04/21 08:08:04;;;;;;;8.00;5.80;;;;;;;11.65;58.41;97600.50;1701645;84;21232;-79
2021/04/21 08:10:35;;;;;;;9.15;6.40;;;;;;;11.84;57.52;97600.16;1700704;84;21243;-79
2021/04/21 08:13:08;;;;;;;6.78;5.90;;;;;;;12.01;57.28;97602.11;1701450;83;21464;-81
2021/04/21 08:15:39;;;;;;;8.18;6.03;;;;;;;12.14;56.31;97595.00;1699961;84;21149;-80
2021/04/21 08:18:14;;;;;;;8.05;5.58;;;;;;;12.31;56.46;97594.73;1700677;83;21201;-80
2021/04/21 08:20:45;;;;;;;6.62;4.90;;;;;;;12.44;56.85;97599.05;1701478;84;21106;-80
2021/04/21 08:23:18;;;;;;;10.35;4.53;;;;;;;12.61;53.37;97597.86;1697849;84;21291;-80
2021/04/21 08:25:47;;;;;;;6.85;5.30;;;;;;;12.75;55.18;97600.37;1700566;84;21661;-80
2021/04/21 08:28:15;;;;;;;5.78;5.25;;;;;;;12.86;54.77;97599.41;1701366;84;21144;-80
2021/04/21 08:31:01;;;;;;;8.53;5.28;;;;;;;12.85;52.93;97604.80;1701392;84;21101;-81
2021/04/21 08:33:31;;;;;;;6.78;5.22;;;;;;;12.85;54.24;97603.47;1703803;84;21104;-80
2021/04/21 08:35:59;;;;;;;5.65;4.65;;;;;;;12.83;52.68;97597.36;1702106;84;21109;-80
2021/04/21 08:38:26;;;;;;;5.70;4.80;;;;;;;12.64;50.30;97604.38;1703775;84;21697;-80
2021/04/21 08:40:53;;;;;;;6.30;5.05;;;;;;;12.49;49.89;97593.06;1703208;84;21723;-80
2021/04/21 08:43:22;;;;;;;6.62;5.50;;;;;;;12.44;50.48;97599.05;1702025;84;21474;-80
2021/04/21 08:45:53;;;;;;;10.08;5.60;;;;;;;12.40;51.06;97595.67;1674879;84;21125;-79
2021/04/21 08:48:22;;;;;;;7.80;5.50;;;;;;;12.49;53.31;97600.59;1705849;84;21122;-80
2021/04/21 08:50:50;;;;;;;6.67;5.45;;;;;;;12.50;53.24;97596.98;1703564;84;21149;-80
2021/04/21 08:53:19;;;;;;;7.22;5.70;;;;;;;12.58;53.42;97591.33;1692533;84;21239;-79
2021/04/21 08:55:49;;;;;;;8.78;5.55;;;;;;;12.65;52.06;97593.26;1687953;85;21315;-80
2021/04/21 08:58:21;;;;;;;7.08;5.50;;;;;;;12.71;53.38;97594.79;1688005;85;21266;-79
2021/04/21 09:00:49;;;;;;;6.78;5.45;;;;;;;12.74;52.79;97595.51;1687996;85;21137;-80
2021/04/21 09:03:17;;;;;;;6.87;5.37;;;;;;;12.80;53.19;97588.58;1704712;84;21113;-80
2021/04/21 09:05:45;;;;;;;8.13;5.83;;;;;;;12.89;53.55;97585.98;1716656;83;21483;-78
2021/04/21 09:08:12;;;;;;;6.42;5.45;;;;;;;12.96;52.59;97593.22;1716684;83;21126;-80
2021/04/21 09:10:41;;;;;;;7.25;5.50;;;;;;;12.98;50.09;97588.69;1716449;83;21137;-79
2021/04/21 09:13:11;;;;;;;6.17;4.85;;;;;;;13.00;51.45;97584.63;1689404;84;21101;-79
2021/04/21 09:15:38;;;;;;;8.85;5.42;;;;;;;13.05;48.81;97578.14;1716558;83;21129;-80
2021/04/21 09:18:06;;;;;;;6.80;5.83;;;;;;;13.10;49.68;97576.61;1716451;84;21192;-79
2021/04/21 09:20:40;;;;;;;7.08;5.85;;;;;;;13.26;50.80;97571.89;1716636;83;21134;-79
2021/04/21 09:23:11;;;;;;;6.83;5.45;;;;;;;13.44;48.73;97571.48;1715615;84;21107;-79
2021/04/21 09:25:43;;;;;;;7.80;6.10;;;;;;;13.62;48.36;97577.73;1714459;84;21062;-79
2021/04/21 09:28:11;;;;;;;7.83;6.42;;;;;;;13.83;49.86;97577.16;1717057;84;21425;-79
2021/04/21 09:30:45;;;;;;;9.88;6.90;;;;;;;14.09;50.60;97579.46;1716766;84;21263;-79
2021/04/21 09:33:12;;;;;;;9.15;6.67;;;;;;;14.21;51.39;97576.64;1689677;84;21452;-78
2021/04/21 09:35:44;;;;;;;10.48;6.95;;;;;;;14.08;51.60;97585.73;1716606;83;21488;-79
2021/04/21 09:38:18;;;;;;;12.55;7.92;;;;;;;13.92;52.42;97589.63;1716615;84;21115;-79
2021/04/21 09:40:53;;;;;;;6.80;5.72;;;;;;;13.81;52.75;97598.14;1716534;84;21515;-79
2021/04/21 09:43:27;;;;;;;6.42;5.65;;;;;;;13.69;51.99;97597.82;1696033;84;21100;-80
2021/04/21 09:46:17;;;;;;;5.85;4.92;;;;;;;13.50;50.42;97599.64;1702665;84;21074;-80
2021/04/21 09:48:47;;;;;;;5.50;3.92;;;;;;;13.14;50.63;97600.81;1716578;84;21102;-79
2021/04/21 09:51:18;;;;;;;5.85;4.35;;;;;;;12.60;50.96;97600.58;1716496;83;21099;-79
2021/04/21 09:53:48;;;;;;;4.58;4.00;;;;;;;12.04;53.57;97611.75;1715635;83;21109;-79
2021/04/21 09:56:20;;;;;;;6.12;3.90;;;;;;;11.77;53.53;97608.44;1716687;83;21110;-79
2021/04/21 09:58:56;;;;;;;5.12;3.98;;;;;;;11.53;54.14;97613.36;1716674;83;21157;-77
2021/04/21 10:01:37;;;;;;;;;;;;;;;11.40;55.56;97626.24;1706827;84;21518;-78
2021/04/21 10:04:19;;;;;;;5.45;4.10;;;;;;;11.13;56.18;97621.54;1699261;84;20199;-78
2021/04/21 10:06:57;;;;;;;6.78;5.05;;;;;;;10.76;61.34;97633.05;1697794;84;21108;-78
2021/04/21 10:09:31;;;;;;;9.25;5.33;;;;;;;10.64;60.64;97639.20;1700897;84;21150;-80
2021/04/21 10:12:25;;;;;;;;;;;;;;;10.55;65.08;97646.99;1705067;84;21097;-80
2021/04/21 10:15:10;;;;;;;8.98;7.47;;;;;;;10.45;65.98;97650.01;1692947;85;20162;-79
2021/04/21 10:17:41;;;;;;;;;;;;;;;10.38;67.53;97669.22;1713159;84;21507;-80
2021/04/21 10:20:17;;;;;;;8.10;5.70;;;;;;;10.32;65.56;97673.38;1716538;83;20136;-79
2021/04/21 10:22:47;;;;;;;8.35;5.35;;;;;;;10.25;67.60;97673.59;1715466;83;21098;-79
2021/04/21 10:25:16;;;;;;;7.85;4.90;;;;;;;10.17;67.98;97680.91;1717018;84;21248;-79
2021/04/21 10:27:43;;;;;;;8.23;5.50;;;;;;;10.09;66.64;97675.03;1711379;83;21101;-78
2021/04/21 10:30:13;;;;;;;6.92;5.03;;;;;;;10.01;66.69;97677.93;1716820;84;21121;-79
2021/04/21 10:32:41;;;;;;;5.85;4.15;;;;;;;9.99;67.51;97678.42;1715547;84;21539;-79
2021/04/21 10:35:09;;;;;;;5.28;4.15;;;;;;;9.90;67.58;97681.79;1716379;84;21133;-79
2021/04/21 10:37:39;;;;;;;5.15;4.37;;;;;;;9.86;68.05;97680.59;1716731;83;21095;-79
2021/04/21 10:40:11;;;;;;;5.70;3.58;;;;;;;9.78;69.04;97687.45;1717044;83;21260;-79
2021/04/21 10:43:00;;;;;;;5.83;4.50;;;;;;;9.74;67.52;97691.11;1715615;84;21094;-79
2021/04/21 10:45:28;;;;;;;4.92;3.87;;;;;;;9.64;68.42;97694.03;1716837;84;21443;-79
2021/04/21 10:47:59;;;;;;;5.33;4.10;;;;;;;9.59;68.07;97697.75;1716685;84;21211;-78
2021/04/21 10:50:44;;;;;;;4.47;3.37;;;;;;;9.53;67.43;97704.53;1716796;83;21125;-79
2021/04/21 10:53:25;;;;;;;4.45;3.27;;;;;;;9.45;66.92;97700.80;1688072;85;21601;-79
2021/04/21 10:55:53;;;;;;;7.17;4.67;;;;;;;9.35;67.80;97711.64;1687943;85;21271;-79
2021/04/21 10:58:20;;;;;;;4.78;3.40;;;;;;;9.25;67.30;97722.08;1704559;84;21124;-79
2021/04/21 11:00:50;;;;;;;7.28;3.65;;;;;;;9.17;67.37;97726.74;1690104;84;21145;-79
2021/04/21 11:03:25;;;;;;;4.92;3.65;;;;;;;9.08;67.55;97734.45;1692177;84;21216;-78
2021/04/21 11:05:57;;;;;;;4.42;3.33;;;;;;;8.97;68.94;97738.27;1706110;84;21224;-76
2021/04/21 11:08:29;;;;;;;5.00;4.00;;;;;;;8.89;68.80;97738.91;1702377;84;21224;-78
2021/04/21 11:11:04;;;;;;;;;;;;;;;8.84;70.28;97743.02;1712352;84;21134;-80
2021/04/21 11:13:41;;;;;;;4.40;3.37;;;;;;;8.79;69.76;97744.92;1719949;80;20113;-79
2021/04/21 11:16:35;;;;;;;4.65;2.87;;;;;;;8.67;72.31;97751.83;1703449;83;21203;-79
2021/04/21 11:19:25;;;;;;;6.08;3.80;;;;;;;8.63;73.18;97744.91;1671037;85;21172;-79
2021/04/21 11:22:18;;;;;;;4.92;3.65;;;;;;;8.66;70.95;97727.20;1663704;86;21234;-79
2021/04/21 11:25:26;;;;;;;6.58;3.72;;;;;;;8.69;72.57;97739.47;1661778;86;21140;-79
2021/04/21 11:27:55;;;;;;;4.20;3.37;;;;;;;8.69;73.77;97738.14;1668181;85;21108;-79
2021/04/21 11:30:41;;;;;;;6.22;3.98;;;;;;;8.68;74.68;97737.73;1666354;85;21161;-79
2021/04/21 11:33:09;;;;;;;6.37;3.90;;;;;;;8.74;73.99;97740.20;1661501;84;21158;-78
2021/04/21 11:35:36;;;;;;;5.80;4.40;;;;;;;8.91;73.79;97730.51;1695541;84;21529;-78
2021/04/21 11:38:04;;;;;;;4.75;3.80;;;;;;;9.10;74.55;97728.69;1708774;83;21505;-78
2021/04/21 11:40:33;;;;;;;5.58;3.67;;;;;;;9.32;74.36;97736.00;1710517;83;21155;-79
2021/04/21 11:43:17;;;;;;;6.70;4.15;;;;;;;9.35;74.17;97735.45;1707473;83;21134;-78
2021/04/21 11:45:45;;;;;;;5.13;4.03;;;;;;;9.26;74.19;97730.42;1705187;83;21179;-77
2021/04/21 11:48:18;;;;;;;7.03;4.60;;;;;;;9.29;74.01;97736.08;1695232;83;21505;-82
2021/04/21 11:50:49;;;;;;;5.87;4.20;;;;;;;9.22;74.24;97728.33;1694611;85;21151;-82
2021/04/21 11:53:22;;;;;;;5.97;4.47;;;;;;;9.34;73.19;97721.82;1703135;83;21478;-83
2021/04/21 11:58:33;;;;;;;7.62;4.85;;;;;;;9.38;74.87;97708.92;1710416;83;21135;-80
2021/04/21 12:01:12;;;;;;;6.83;4.95;;;;;;;9.45;72.56;97706.97;1705456;83;21450;-79
2021/04/21 12:03:48;;;;;;;5.22;4.58;;;;;;;9.52;72.17;97702.36;1720426;83;21553;-79
2021/04/21 12:06:18;;;;;;;7.03;4.80;;;;;;;9.61;72.01;97701.20;1722003;83;21114;-81
2021/04/21 12:08:51;;;;;;;6.90;4.40;;;;;;;9.69;70.78;97702.30;1723547;83;21163;-80
2021/04/21 12:11:33;;;;;;;5.80;5.08;;;;;;;9.66;70.68;97700.61;1723880;83;21179;-80
2021/04/21 12:13:57;;;;;;;5.87;4.45;;;;;;;9.73;70.54;97692.03;1722764;83;21116;-80
2021/04/21 12:16:27;;;;;;;5.05;4.30;;;;;;;9.86;69.75;97689.41;1723032;83;21127;-80
2021/04/21 12:18:57;;;;;;;5.75;4.22;;;;;;;10.02;69.29;97691.09;1723483;82;21210;-79